createdAt,value
2018-08-17T00:00:08.328Z,73.50
2018-08-17T00:02:35.860Z,73.40
2018-08-17T00:05:03.394Z,73.40
2018-08-17T00:07:30.878Z,73.80
2018-08-17T00:09:58.408Z,73.80
2018-08-17T00:12:25.902Z,74.40
2018-08-17T00:14:53.421Z,74.80
2018-08-17T00:17:20.908Z,75.10
2018-08-17T00:19:48.418Z,75.00
2018-08-17T00:22:15.910Z,75.00
2018-08-17T00:24:43.425Z,75.10
2018-08-17T00:27:11.102Z,75.10
2018-08-17T00:29:38.626Z,75.40
2018-08-17T00:32:06.327Z,75.40
2018-08-17T00:34:33.777Z,75.70
2018-08-17T00:37:02.215Z,75.40
2018-08-17T00:39:29.729Z,75.50
2018-08-17T00:41:57.233Z,75.60
2018-08-17T00:44:24.769Z,75.80
2018-08-17T00:46:52.460Z,75.80
2018-08-17T00:49:20.719Z,77.10
2018-08-17T00:51:48.229Z,76.90
2018-08-17T00:54:15.834Z,76.70
2018-08-17T00:56:44.176Z,76.90
2018-08-17T00:59:11.662Z,76.80
2018-08-17T01:01:39.171Z,76.80
2018-08-17T01:04:06.831Z,77.10
2018-08-17T01:06:34.329Z,77.70
2018-08-17T01:09:01.834Z,77.70
2018-08-17T01:11:29.350Z,77.70
2018-08-17T01:13:57.003Z,78.20
2018-08-17T01:16:24.508Z,78.10
2018-08-17T01:18:52.026Z,78.40
2018-08-17T01:21:19.539Z,78.50
2018-08-17T01:23:47.456Z,78.60
2018-08-17T01:26:15.046Z,78.80
2018-08-17T01:28:42.550Z,78.90
2018-08-17T01:31:10.061Z,79.20
2018-08-17T01:33:37.571Z,79.50
2018-08-17T01:36:05.087Z,79.60
2018-08-17T01:38:32.582Z,80.10
2018-08-17T01:41:00.094Z,80.30
2018-08-17T01:43:27.610Z,80.80
2018-08-17T01:45:55.178Z,81.30
2018-08-17T01:48:22.664Z,81.40
2018-08-17T01:50:50.186Z,81.50
2018-08-17T01:53:17.697Z,81.40
2018-08-17T01:55:45.454Z,81.40
2018-08-17T01:58:14.285Z,81.40
2018-08-17T02:00:41.801Z,81.40
2018-08-17T02:03:10.054Z,81.40
2018-08-17T02:05:37.553Z,81.40
2018-08-17T02:08:05.042Z,81.90
2018-08-17T02:10:33.301Z,82.70
2018-08-17T02:13:00.818Z,82.60
2018-08-17T02:15:29.089Z,82.50
2018-08-17T02:17:56.801Z,82.60
2018-08-17T02:20:24.313Z,82.50
2018-08-17T02:22:51.826Z,82.10
2018-08-17T02:25:19.341Z,82.60
2018-08-17T02:27:46.970Z,82.80
2018-08-17T02:30:15.664Z,83.10
2018-08-17T02:32:43.175Z,82.90
2018-08-17T02:35:10.670Z,83.00
2018-08-17T02:37:38.178Z,82.80
2018-08-17T02:40:05.843Z,83.50
2018-08-17T02:42:33.363Z,82.90
2018-08-17T02:45:00.867Z,83.10
2018-08-17T02:47:28.377Z,83.10
2018-08-17T02:49:55.902Z,83.60
2018-08-17T02:52:23.463Z,84.30
2018-08-17T02:54:50.999Z,84.70
2018-08-17T02:57:18.502Z,83.80
2018-08-17T02:59:46.019Z,84.60
2018-08-17T03:02:14.182Z,85.10
2018-08-17T03:04:41.681Z,85.70
2018-08-17T03:07:09.186Z,86.30
2018-08-17T03:09:36.806Z,85.70
2018-08-17T03:12:04.333Z,85.50
2018-08-17T03:14:31.834Z,84.70
2018-08-17T03:16:59.352Z,84.50
2018-08-17T03:19:26.952Z,84.30
2018-08-17T03:21:54.470Z,84.30
2018-08-17T03:24:21.970Z,85.20
2018-08-17T03:26:49.486Z,85.40
2018-08-17T03:29:16.987Z,86.00
2018-08-17T03:31:45.456Z,85.00
2018-08-17T03:34:13.283Z,85.00
2018-08-17T03:36:41.699Z,84.50
2018-08-17T03:39:09.196Z,84.50
2018-08-17T03:41:36.881Z,84.80
2018-08-17T03:44:04.403Z,84.90
2018-08-17T03:46:31.885Z,84.80
2018-08-17T03:48:59.402Z,85.00
2018-08-17T03:51:26.990Z,85.10
2018-08-17T03:53:54.598Z,84.80
2018-08-17T03:56:22.127Z,84.70
2018-08-17T03:58:49.618Z,84.80
2018-08-17T04:01:18.818Z,84.80
2018-08-17T04:03:46.506Z,84.70
2018-08-17T04:06:14.007Z,84.80
2018-08-17T04:08:41.507Z,85.00
2018-08-17T04:11:09.341Z,85.30
2018-08-17T04:13:36.968Z,85.00
2018-08-17T04:16:04.480Z,85.20
2018-08-17T04:18:32.074Z,85.40
2018-08-17T04:20:59.564Z,85.50
2018-08-17T04:23:27.074Z,85.50
2018-08-17T04:25:54.595Z,85.50
2018-08-17T04:28:22.115Z,85.40
2018-08-17T04:30:49.623Z,85.40
2018-08-17T04:33:17.137Z,85.50
2018-08-17T04:35:44.626Z,85.50
2018-08-17T04:38:12.125Z,85.60
2018-08-17T04:40:39.685Z,85.60
2018-08-17T04:43:08.310Z,85.50
2018-08-17T04:45:35.906Z,85.50
2018-08-17T04:48:03.429Z,85.60
2018-08-17T04:50:30.939Z,85.50
2018-08-17T04:52:58.711Z,85.60
2018-08-17T04:55:26.444Z,85.60
2018-08-17T04:57:53.972Z,85.50
2018-08-17T05:00:21.466Z,85.40
2018-08-17T05:02:49.055Z,85.30
2018-08-17T05:05:16.679Z,85.30
2018-08-17T05:07:44.175Z,85.70
2018-08-17T05:10:12.440Z,84.10
2018-08-17T05:12:39.949Z,84.10
2018-08-17T05:15:07.648Z,84.30
2018-08-17T05:17:35.387Z,84.50
2018-08-17T05:20:04.573Z,84.50
2018-08-17T05:22:32.069Z,84.50
2018-08-17T05:24:59.574Z,84.20
2018-08-17T05:27:27.061Z,84.20
2018-08-17T05:29:54.562Z,84.10
2018-08-17T05:32:22.829Z,83.10
2018-08-17T05:34:50.329Z,83.10
2018-08-17T05:37:17.857Z,84.60
2018-08-17T05:39:46.311Z,82.50
2018-08-17T05:42:13.811Z,82.50
2018-08-17T05:44:41.346Z,81.70
2018-08-17T05:47:09.146Z,80.00
2018-08-17T05:49:36.843Z,78.30
2018-08-17T05:52:05.170Z,69.00
2018-08-17T05:54:32.684Z,68.90
2018-08-17T05:57:00.175Z,63.10
2018-08-17T05:59:27.703Z,59.20
2018-08-17T06:01:55.490Z,57.80
2018-08-17T06:04:23.774Z,54.50
2018-08-17T06:06:52.035Z,52.80
2018-08-17T06:09:19.561Z,52.70
2018-08-17T06:11:47.846Z,52.00
2018-08-17T06:14:15.483Z,52.00
2018-08-17T06:16:43.850Z,51.70
2018-08-17T06:19:11.431Z,50.20
2018-08-17T06:21:38.901Z,48.90
2018-08-17T06:24:06.627Z,49.00
2018-08-17T06:26:34.114Z,48.30
2018-08-17T06:29:01.620Z,47.90
2018-08-17T06:31:29.115Z,49.40
2018-08-17T06:33:56.802Z,51.20
2018-08-17T06:36:24.311Z,52.60
2018-08-17T06:38:51.811Z,53.70
2018-08-17T06:41:19.326Z,53.70
2018-08-17T06:43:46.968Z,53.70
2018-08-17T06:46:15.462Z,51.00
2018-08-17T06:48:42.967Z,50.90
2018-08-17T06:51:10.583Z,49.70
2018-08-17T06:53:38.026Z,48.50
2018-08-17T06:56:05.928Z,48.80
2018-08-17T06:58:33.447Z,48.90
2018-08-17T07:01:00.936Z,47.80
2018-08-17T07:03:28.914Z,46.00
2018-08-17T07:05:56.497Z,45.70
2018-08-17T07:08:23.991Z,45.60
2018-08-17T07:10:52.061Z,46.00
2018-08-17T07:13:19.603Z,46.70
2018-08-17T07:16:18.987Z,46.40
2018-08-17T07:18:46.588Z,47.20
2018-08-17T07:21:14.102Z,46.90
2018-08-17T07:23:41.618Z,45.90
2018-08-17T07:26:09.300Z,45.50
2018-08-17T07:28:36.949Z,46.90
2018-08-17T07:31:04.503Z,46.70
2018-08-17T07:33:32.019Z,44.70
2018-08-17T07:35:59.562Z,46.30
2018-08-17T07:38:27.816Z,47.30
2018-08-17T07:40:55.477Z,47.20
2018-08-17T07:43:23.196Z,46.50
2018-08-17T07:45:50.703Z,45.30
2018-08-17T07:48:18.395Z,45.90
2018-08-17T07:50:45.908Z,46.00
2018-08-17T07:53:13.434Z,45.60
2018-08-17T07:55:40.958Z,46.00
2018-08-17T07:58:08.887Z,46.10
2018-08-17T08:00:36.634Z,46.30
2018-08-17T08:03:04.136Z,45.90
2018-08-17T08:05:31.660Z,45.00
2018-08-17T08:07:59.918Z,44.60
2018-08-17T08:10:28.206Z,45.00
2018-08-17T08:12:55.874Z,44.90
2018-08-17T08:15:23.399Z,46.80
2018-08-17T08:17:50.894Z,47.80
2018-08-17T08:20:20.918Z,47.30
2018-08-17T08:22:48.419Z,46.60
2018-08-17T08:25:15.926Z,46.10
2018-08-17T08:27:43.438Z,45.40
2018-08-17T08:30:11.486Z,45.80
2018-08-17T08:32:39.053Z,46.40
2018-08-17T08:35:06.694Z,47.20
2018-08-17T08:37:34.188Z,49.40
2018-08-17T08:40:01.725Z,50.10
2018-08-17T08:42:29.256Z,48.60
2018-08-17T08:44:56.843Z,47.40
2018-08-17T08:47:24.337Z,48.70
2018-08-17T08:49:52.602Z,50.10
2018-08-17T08:52:20.092Z,50.00
2018-08-17T08:54:47.915Z,50.60
2018-08-17T08:57:15.664Z,50.30
2018-08-17T08:59:43.225Z,50.50
2018-08-17T09:02:10.729Z,49.90
2018-08-17T09:04:39.047Z,51.20
2018-08-17T09:07:06.989Z,51.10
2018-08-17T09:09:34.503Z,51.90
2018-08-17T09:12:02.026Z,52.70
2018-08-17T09:14:29.551Z,54.10
2018-08-17T09:16:57.859Z,54.80
2018-08-17T09:19:25.474Z,54.70
2018-08-17T09:21:53.024Z,55.40
2018-08-17T09:24:20.511Z,56.10
2018-08-17T09:26:48.018Z,55.20
2018-08-17T09:29:15.866Z,55.60
2018-08-17T09:31:43.320Z,55.00
2018-08-17T09:34:10.818Z,55.70
2018-08-17T09:36:38.335Z,56.30
2018-08-17T09:39:06.007Z,56.50
2018-08-17T09:41:33.526Z,56.90
2018-08-17T09:44:01.021Z,56.40
2018-08-17T09:46:28.521Z,57.10
2018-08-17T09:48:56.015Z,57.00
2018-08-17T09:51:23.557Z,57.10
2018-08-17T09:53:51.040Z,56.70
2018-08-17T09:56:18.555Z,57.30
2018-08-17T09:58:46.826Z,56.60
2018-08-17T10:01:15.143Z,57.10
2018-08-17T10:03:43.132Z,57.30
2018-08-17T10:06:11.759Z,57.20
2018-08-17T10:08:39.995Z,56.80
2018-08-17T10:11:09.052Z,56.10
2018-08-17T10:13:36.632Z,56.60
2018-08-17T10:16:04.156Z,57.20
2018-08-17T10:18:31.693Z,57.30
2018-08-17T10:20:59.219Z,56.80
2018-08-17T10:23:26.796Z,56.60
2018-08-17T10:25:54.317Z,57.60
2018-08-17T10:28:21.817Z,57.20
2018-08-17T10:30:49.330Z,56.80
2018-08-17T10:33:16.963Z,56.70
2018-08-17T10:35:44.494Z,57.50
2018-08-17T10:38:11.978Z,56.90
2018-08-17T10:40:39.545Z,57.20
2018-08-17T10:43:07.559Z,56.50
2018-08-17T10:45:35.077Z,57.10
2018-08-17T10:48:03.361Z,56.40
2018-08-17T10:50:30.870Z,56.30
2018-08-17T10:52:58.392Z,56.50
2018-08-17T10:55:25.890Z,56.70
2018-08-17T10:57:53.415Z,56.90
2018-08-17T11:00:20.942Z,57.30
2018-08-17T11:02:49.249Z,57.00
2018-08-17T11:05:16.910Z,57.10
2018-08-17T11:07:44.430Z,56.90
2018-08-17T11:10:12.705Z,56.90
2018-08-17T11:12:40.219Z,56.80
2018-08-17T11:15:08.457Z,57.10
2018-08-17T11:17:35.974Z,56.40
2018-08-17T11:20:03.464Z,55.40
2018-08-17T11:22:30.991Z,55.60
2018-08-17T11:24:58.510Z,56.20
2018-08-17T11:27:26.027Z,57.50
2018-08-17T11:29:53.632Z,56.20
2018-08-17T11:32:21.153Z,56.20
2018-08-17T11:34:48.680Z,56.50
2018-08-17T11:37:16.307Z,56.40
2018-08-17T11:39:43.818Z,56.00
2018-08-17T11:42:11.335Z,56.20
2018-08-17T11:44:38.917Z,55.80
2018-08-17T11:47:06.619Z,55.10
2018-08-17T11:49:34.110Z,54.60
2018-08-17T11:52:01.640Z,53.60
2018-08-17T11:54:29.172Z,54.30
2018-08-17T11:56:56.855Z,53.70
2018-08-17T11:59:24.338Z,53.50
2018-08-17T12:01:51.900Z,53.60
2018-08-17T12:04:19.391Z,52.70
2018-08-17T12:06:46.958Z,52.80
2018-08-17T12:09:14.474Z,54.20
2018-08-17T12:11:41.978Z,53.60
2018-08-17T12:14:09.478Z,53.60
2018-08-17T12:16:37.736Z,53.90
2018-08-17T12:19:05.454Z,53.90
2018-08-17T12:21:32.943Z,54.10
2018-08-17T12:24:00.457Z,53.80
2018-08-17T12:26:27.967Z,54.20
2018-08-17T12:28:56.422Z,53.40
2018-08-17T12:31:23.906Z,53.30
2018-08-17T12:33:51.415Z,53.00
2018-08-17T12:36:18.914Z,52.60
2018-08-17T12:38:46.480Z,52.90
2018-08-17T12:41:14.993Z,53.40
2018-08-17T12:43:42.504Z,53.40
2018-08-17T12:46:10.367Z,53.00
2018-08-17T12:48:38.792Z,52.50
2018-08-17T12:51:06.649Z,52.30
2018-08-17T12:53:34.155Z,52.30
2018-08-17T12:56:01.652Z,52.50
2018-08-17T12:58:29.176Z,52.20
2018-08-17T13:00:56.813Z,52.50
2018-08-17T13:03:24.328Z,51.60
2018-08-17T13:05:51.827Z,50.90
2018-08-17T13:08:19.322Z,51.20
2018-08-17T13:10:46.981Z,50.50
2018-08-17T13:13:14.469Z,50.60
2018-08-17T13:15:41.955Z,51.10
2018-08-17T13:18:09.783Z,50.80
2018-08-17T13:20:37.286Z,50.40
2018-08-17T13:23:05.016Z,50.20
2018-08-17T13:25:32.518Z,49.60
2018-08-17T13:28:00.044Z,49.90
2018-08-17T13:30:27.542Z,50.50
2018-08-17T13:32:55.046Z,51.10
2018-08-17T13:35:22.529Z,50.40
2018-08-17T13:37:50.643Z,50.40
2018-08-17T13:40:18.140Z,51.30
2018-08-17T13:42:45.875Z,50.80
2018-08-17T13:45:13.365Z,50.50
2018-08-17T13:47:40.874Z,49.80
2018-08-17T13:50:08.958Z,50.30
2018-08-17T13:52:36.607Z,48.40
2018-08-17T13:55:04.081Z,48.60
2018-08-17T13:57:31.614Z,48.70
2018-08-17T13:59:59.120Z,49.30
2018-08-17T14:02:27.226Z,49.50
2018-08-17T14:04:54.866Z,50.00
2018-08-17T14:07:22.473Z,50.10
2018-08-17T14:09:50.900Z,50.00
2018-08-17T14:12:18.391Z,50.00
2018-08-17T14:14:45.916Z,48.90
2018-08-17T14:17:13.406Z,49.40
2018-08-17T14:19:40.905Z,49.80
2018-08-17T14:22:08.563Z,49.20
2018-08-17T14:24:36.078Z,49.50
2018-08-17T14:27:03.580Z,48.90
2018-08-17T14:29:31.072Z,49.40
2018-08-17T14:31:58.576Z,49.30
2018-08-17T14:34:26.193Z,49.70
2018-08-17T14:36:53.630Z,50.30
2018-08-17T14:39:21.904Z,50.60
2018-08-17T14:41:50.161Z,50.70
2018-08-17T14:44:17.674Z,50.60
2018-08-17T14:46:45.422Z,50.40
2018-08-17T14:49:12.988Z,50.60
2018-08-17T14:51:40.681Z,50.40
2018-08-17T14:54:08.444Z,50.60
2018-08-17T14:56:36.597Z,50.50
2018-08-17T14:59:04.158Z,50.10
2018-08-17T15:01:31.646Z,50.10
2018-08-17T15:03:59.170Z,50.40
2018-08-17T15:06:26.790Z,50.50
2018-08-17T15:08:54.301Z,51.00
2018-08-17T15:11:21.849Z,50.70
2018-08-17T15:13:49.385Z,51.00
2018-08-17T15:16:16.866Z,51.00
2018-08-17T15:18:44.460Z,51.50
2018-08-17T15:21:11.880Z,52.20
2018-08-17T15:23:39.376Z,51.70
2018-08-17T15:26:07.079Z,52.30
2018-08-17T15:28:34.637Z,51.70
2018-08-17T15:31:02.101Z,52.90
2018-08-17T15:33:29.614Z,53.40
2018-08-17T15:35:57.652Z,52.60
2018-08-17T15:38:25.450Z,52.60
2018-08-17T15:40:53.080Z,53.30
2018-08-17T15:43:20.466Z,53.40
2018-08-17T15:45:47.954Z,53.30
2018-08-17T15:48:15.547Z,52.60
2018-08-17T15:50:43.034Z,52.30
2018-08-17T15:53:10.546Z,51.80
2018-08-17T15:55:38.051Z,51.60
2018-08-17T15:58:05.847Z,51.50
2018-08-17T16:00:33.352Z,51.40
2018-08-17T16:03:00.832Z,52.10
2018-08-17T16:05:28.339Z,52.60
2018-08-17T16:07:55.912Z,53.40
2018-08-17T16:10:23.488Z,53.90
2018-08-17T16:12:50.936Z,54.20
2018-08-17T16:15:18.444Z,54.60
2018-08-17T16:17:45.940Z,54.60
2018-08-17T16:20:13.447Z,55.40
2018-08-17T16:22:40.950Z,56.10
2018-08-17T16:25:09.289Z,56.30
2018-08-17T16:27:36.881Z,57.30
2018-08-17T16:30:04.394Z,58.00
2018-08-17T16:32:31.894Z,58.20
2018-08-17T16:34:59.397Z,58.40
2018-08-17T16:37:27.017Z,58.60
2018-08-17T16:39:54.483Z,58.50
2018-08-17T16:42:21.966Z,58.70
2018-08-17T16:44:49.547Z,58.70
2018-08-17T16:47:17.729Z,59.30
2018-08-17T16:49:45.256Z,59.30
2018-08-17T16:52:12.786Z,59.60
2018-08-17T16:54:40.317Z,59.90
2018-08-17T16:57:08.276Z,60.10
2018-08-17T16:59:35.876Z,60.50
2018-08-17T17:02:04.200Z,60.90
2018-08-17T17:04:32.485Z,61.20
2018-08-17T17:07:00.758Z,61.40
2018-08-17T17:09:28.261Z,61.20
2018-08-17T17:11:55.831Z,61.40
2018-08-17T17:14:23.340Z,61.70
2018-08-17T17:16:50.843Z,61.80
2018-08-17T17:19:18.354Z,61.70
2018-08-17T17:21:45.850Z,61.60
2018-08-17T17:24:13.372Z,62.30
2018-08-17T17:26:40.875Z,62.70
2018-08-17T17:29:08.672Z,63.00
2018-08-17T17:31:36.317Z,63.40
2018-08-17T17:34:03.838Z,63.40
2018-08-17T17:36:31.353Z,63.80
2018-08-17T17:38:58.834Z,64.20
2018-08-17T17:41:26.446Z,64.30
2018-08-17T17:43:53.934Z,64.50
2018-08-17T17:46:21.446Z,64.50
2018-08-17T17:48:49.497Z,64.60
2018-08-17T17:51:17.792Z,64.70
2018-08-17T17:53:45.298Z,64.70
2018-08-17T17:56:12.814Z,64.60
2018-08-17T17:58:40.306Z,64.80
2018-08-17T18:01:07.832Z,64.80
2018-08-17T18:03:36.028Z,65.20
2018-08-17T18:06:03.563Z,65.40
2018-08-17T18:08:31.055Z,65.90
2018-08-17T18:10:58.562Z,66.10
2018-08-17T18:13:26.040Z,66.50
2018-08-17T18:15:53.561Z,67.00
2018-08-17T18:18:21.054Z,67.20
2018-08-17T18:20:48.574Z,67.50
2018-08-17T18:23:16.295Z,67.70
2018-08-17T18:25:43.803Z,67.90
2018-08-17T18:28:11.290Z,68.00
2018-08-17T18:30:38.825Z,68.20
2018-08-17T18:33:06.590Z,68.40
2018-08-17T18:35:34.115Z,68.50
2018-08-17T18:38:01.601Z,68.70
2018-08-17T18:40:29.232Z,69.00
2018-08-17T18:42:56.842Z,69.10
2018-08-17T18:45:24.382Z,69.30
2018-08-17T18:47:52.679Z,70.00
2018-08-17T18:50:20.184Z,70.50
2018-08-17T18:52:47.731Z,70.00
2018-08-17T18:55:15.458Z,70.20
2018-08-17T18:57:42.966Z,70.60
2018-08-17T19:00:11.806Z,70.80
2018-08-17T19:02:39.392Z,71.20
2018-08-17T19:05:07.101Z,71.20
2018-08-17T19:07:35.033Z,71.50
2018-08-17T19:10:02.597Z,71.80
2018-08-17T19:12:30.055Z,71.90
2018-08-17T19:14:57.549Z,72.10
2018-08-17T19:17:25.059Z,72.50
2018-08-17T19:19:52.549Z,72.30
2018-08-17T19:22:20.075Z,72.40
2018-08-17T19:24:47.650Z,72.60
2018-08-17T19:27:15.499Z,72.70
2018-08-17T19:29:43.002Z,73.10
2018-08-17T19:32:11.290Z,73.40
2018-08-17T19:34:38.799Z,73.30
2018-08-17T19:37:06.430Z,73.70
2018-08-17T19:39:33.943Z,73.60
2018-08-17T19:42:02.253Z,74.00
2018-08-17T19:44:29.784Z,74.00
2018-08-17T19:46:57.277Z,74.30
2018-08-17T19:49:25.008Z,74.20
2018-08-17T19:51:52.616Z,74.70
2018-08-17T19:54:20.135Z,74.70
2018-08-17T19:56:47.650Z,75.00
2018-08-17T19:59:15.362Z,75.30
2018-08-17T20:01:42.878Z,75.20
2018-08-17T20:04:10.377Z,75.30
2018-08-17T20:06:37.916Z,75.20
2018-08-17T20:09:05.579Z,75.30
2018-08-17T20:11:33.094Z,75.30
2018-08-17T20:14:00.653Z,75.50
2018-08-17T20:16:28.998Z,75.80
2018-08-17T20:18:56.635Z,75.80
2018-08-17T20:21:24.487Z,76.10
2018-08-17T20:23:52.015Z,76.20
2018-08-17T20:26:19.799Z,76.20
2018-08-17T20:28:47.042Z,76.50
2018-08-17T20:31:15.422Z,76.70
2018-08-17T20:33:43.035Z,76.90
2018-08-17T20:36:10.566Z,76.60
2018-08-17T20:38:38.065Z,76.60
2018-08-17T20:41:05.870Z,76.50
2018-08-17T20:43:33.382Z,76.70
2018-08-17T20:46:00.894Z,76.90
2018-08-17T20:48:28.385Z,77.00
2018-08-17T20:50:55.904Z,77.10
2018-08-17T20:53:23.455Z,77.20
2018-08-17T20:55:50.958Z,77.50
2018-08-17T20:58:19.232Z,77.80
2018-08-17T21:00:46.807Z,77.80
2018-08-17T21:03:14.639Z,78.00
2018-08-17T21:05:42.195Z,78.10
2018-08-17T21:08:09.680Z,78.40
2018-08-17T21:10:37.199Z,78.70
2018-08-17T21:13:04.792Z,78.60
2018-08-17T21:15:32.450Z,78.80
2018-08-17T21:17:59.963Z,79.00
2018-08-17T21:20:27.480Z,79.00
2018-08-17T21:22:55.019Z,79.20
2018-08-17T21:25:22.566Z,79.10
2018-08-17T21:27:50.080Z,79.30
2018-08-17T21:30:17.589Z,79.30
2018-08-17T21:32:45.107Z,79.30
2018-08-17T21:35:13.362Z,79.30
2018-08-17T21:37:40.909Z,79.30
2018-08-17T21:40:08.400Z,79.30
2018-08-17T21:42:35.924Z,79.40
2018-08-17T21:45:03.434Z,79.50
2018-08-17T21:47:31.157Z,79.40
2018-08-17T21:49:58.654Z,79.10
2018-08-17T21:52:26.442Z,79.30
2018-08-17T21:54:53.937Z,79.50
2018-08-17T21:57:21.450Z,79.70
2018-08-17T21:59:48.944Z,79.90
2018-08-17T22:02:16.751Z,80.10
2018-08-17T22:04:44.211Z,80.20
2018-08-17T22:07:11.751Z,80.40
2018-08-17T22:09:39.271Z,80.70
2018-08-17T22:12:07.140Z,80.70
2018-08-17T22:14:34.654Z,80.80
2018-08-17T22:17:02.153Z,80.80
2018-08-17T22:19:32.100Z,81.00
2018-08-17T22:21:59.609Z,81.30
2018-08-17T22:24:27.746Z,81.30
2018-08-17T22:26:55.491Z,81.50
2018-08-17T22:29:23.026Z,81.80
2018-08-17T22:31:50.517Z,82.00
2018-08-17T22:34:18.077Z,82.40
2018-08-17T22:36:45.786Z,82.50
2018-08-17T22:39:13.712Z,82.70
2018-08-17T22:41:41.699Z,83.10
2018-08-17T22:44:09.225Z,83.80
2018-08-17T22:46:36.830Z,83.20
2018-08-17T22:49:04.479Z,83.20
2018-08-17T22:51:31.886Z,83.50
2018-08-17T22:53:59.831Z,83.60
2018-08-17T22:56:27.407Z,83.80
2018-08-17T22:58:55.014Z,83.70
2018-08-17T23:01:22.537Z,83.80
2018-08-17T23:03:50.079Z,84.00
2018-08-17T23:06:17.637Z,83.80
2018-08-17T23:08:45.148Z,83.90
2018-08-17T23:11:13.029Z,83.70
2018-08-17T23:13:40.551Z,83.70
2018-08-17T23:16:08.040Z,83.70
2018-08-17T23:18:35.790Z,83.50
2018-08-17T23:21:03.299Z,83.70
2018-08-17T23:23:30.831Z,83.60
2018-08-17T23:25:58.336Z,83.60
2018-08-17T23:28:25.870Z,83.80
2018-08-17T23:30:54.130Z,84.00
2018-08-17T23:33:21.620Z,84.00
2018-08-17T23:35:49.151Z,84.10
2018-08-17T23:38:16.825Z,84.20
2018-08-17T23:40:45.106Z,84.40
2018-08-17T23:43:13.618Z,84.30
2018-08-17T23:45:41.141Z,84.60
2018-08-17T23:48:09.390Z,84.30
2018-08-17T23:50:36.990Z,84.30
2018-08-17T23:53:04.506Z,84.50
2018-08-17T23:55:32.017Z,84.50
2018-08-17T23:57:59.527Z,84.60
